NKS250 KACY-KFLL
Flight info
| Callsign | NKS250 |
|---|---|
| Flight time | 3h 26m |
| Altitude | 38000 |
| Route | LEEAH ATR TRPOD Q409 CRPLR KOOKI Q161 CHIEZ Y291 MAJIK CUUDA3 |
| Aircraft | A20N/M-SDE2E3FGHIRWXY/LB1 |
Departure
| Time | 2026-05-03 20:50 |
|---|---|
| Airport | Atlantic City International Airport (KACY) |
Arrival
| Time | 2026-05-04 00:17 |
|---|---|
| Airport | Fort Lauderdale Hollywood International Airport (KFLL) |
| Time | Latitude | Longitude | Altitude | Speed | Heading |
|---|---|---|---|---|---|
| 2026-05-03 20:21 | 39.45237 | -74.57188 | 78 ft | 0 kts | 188° |
| 2026-05-03 20:40 | 39.45248 | -74.57186 | 69 ft | 3 kts | 188° |
| 2026-05-03 20:40 | 39.45267 | -74.57183 | 72 ft | 2 kts | 188° |
| 2026-05-03 20:40 | 39.45284 | -74.57181 | 72 ft | 3 kts | 152° |
| 2026-05-03 20:41 | 39.45295 | -74.57196 | 66 ft | 3 kts | 95° |
| 2026-05-03 20:41 | 39.45293 | -74.57217 | 71 ft | 2 kts | 57° |
| 2026-05-03 20:41 | 39.45287 | -74.57230 | 68 ft | 2 kts | 56° |
| 2026-05-03 20:41 | 39.45284 | -74.57234 | 69 ft | 0 kts | 56° |
| 2026-05-03 20:44 | 39.45285 | -74.57232 | 77 ft | 2 kts | 56° |
| 2026-05-03 20:44 | 39.45308 | -74.57193 | 70 ft | 9 kts | 45° |
| 2026-05-03 20:45 | 39.45374 | -74.57152 | 71 ft | 12 kts | 47° |
| 2026-05-03 20:45 | 39.45413 | -74.57044 | 78 ft | 15 kts | 82° |
| 2026-05-03 20:45 | 39.45373 | -74.56922 | 76 ft | 16 kts | 118° |
| 2026-05-03 20:45 | 39.45321 | -74.56796 | 68 ft | 16 kts | 118° |
| 2026-05-03 20:46 | 39.45276 | -74.56686 | 74 ft | 13 kts | 118° |
| 2026-05-03 20:46 | 39.45227 | -74.56567 | 69 ft | 17 kts | 118° |
| 2026-05-03 20:46 | 39.45164 | -74.56415 | 75 ft | 17 kts | 118° |
| 2026-05-03 20:46 | 39.45113 | -74.56289 | 73 ft | 15 kts | 118° |
| 2026-05-03 20:47 | 39.45058 | -74.56156 | 75 ft | 13 kts | 118° |
| 2026-05-03 20:47 | 39.45072 | -74.56060 | 71 ft | 15 kts | 28° |
| 2026-05-03 20:47 | 39.45151 | -74.56023 | 78 ft | 8 kts | 333° |
| 2026-05-03 20:47 | 39.45165 | -74.56048 | 76 ft | 0 kts | 299° |
| 2026-05-03 20:49 | 39.45170 | -74.56060 | 76 ft | 14 kts | 299° |
| 2026-05-03 20:50 | 39.45336 | -74.56459 | 68 ft | 83 kts | 298° |
| 2026-05-03 20:50 | 39.45696 | -74.57327 | 73 ft | 133 kts | 298° |
| 2026-05-03 20:50 | 39.46138 | -74.58394 | 649 ft | 127 kts | 297° |
| 2026-05-03 20:50 | 39.46514 | -74.59430 | 1262 ft | 133 kts | 285° |
| 2026-05-03 20:51 | 39.46390 | -74.60659 | 1816 ft | 150 kts | 249° |
| 2026-05-03 20:51 | 39.45569 | -74.61675 | 2195 ft | 178 kts | 223° |
| 2026-05-03 20:51 | 39.44530 | -74.62634 | 2571 ft | 194 kts | 223° |
| 2026-05-03 20:51 | 39.43370 | -74.63723 | 2902 ft | 218 kts | 222° |
| 2026-05-03 20:52 | 39.42069 | -74.64938 | 3409 ft | 241 kts | 221° |
| 2026-05-03 20:52 | 39.40648 | -74.66252 | 4085 ft | 258 kts | 220° |
| 2026-05-03 20:52 | 39.39171 | -74.67610 | 5093 ft | 262 kts | 220° |
| 2026-05-03 20:52 | 39.37680 | -74.68977 | 6177 ft | 264 kts | 221° |
| 2026-05-03 20:53 | 39.36166 | -74.70376 | 7132 ft | 270 kts | 221° |
| 2026-05-03 20:53 | 39.34632 | -74.71798 | 8131 ft | 273 kts | 221° |
| 2026-05-03 20:53 | 39.33079 | -74.73238 | 9111 ft | 277 kts | 221° |
| 2026-05-03 20:53 | 39.31520 | -74.74686 | 10073 ft | 281 kts | 222° |
| 2026-05-03 20:54 | 39.29870 | -74.76221 | 10667 ft | 299 kts | 222° |
| 2026-05-03 20:54 | 39.26274 | -74.79568 | 11604 ft | 334 kts | 221° |
| 2026-05-03 20:54 | 39.24369 | -74.81321 | 12510 ft | 336 kts | 221° |
| 2026-05-03 20:55 | 39.22453 | -74.83081 | 13402 ft | 340 kts | 221° |
| 2026-05-03 20:55 | 39.20509 | -74.84872 | 14199 ft | 345 kts | 222° |
| 2026-05-03 20:55 | 39.18552 | -74.86675 | 14989 ft | 347 kts | 222° |
| 2026-05-03 20:55 | 39.16573 | -74.88499 | 15765 ft | 351 kts | 222° |
| 2026-05-03 20:56 | 39.14601 | -74.90317 | 16526 ft | 354 kts | 223° |
| 2026-05-03 20:56 | 39.12586 | -74.92173 | 17277 ft | 357 kts | 223° |
| 2026-05-03 20:56 | 39.10552 | -74.94045 | 18021 ft | 361 kts | 223° |
| 2026-05-03 20:56 | 39.08498 | -74.95937 | 18708 ft | 364 kts | 223° |
| 2026-05-03 20:57 | 39.06430 | -74.97839 | 19386 ft | 366 kts | 223° |
| 2026-05-03 20:57 | 39.04344 | -74.99754 | 20056 ft | 368 kts | 223° |
| 2026-05-03 20:57 | 39.02280 | -75.01647 | 20742 ft | 369 kts | 223° |
| 2026-05-03 20:57 | 39.00179 | -75.03574 | 21389 ft | 372 kts | 223° |
| 2026-05-03 20:58 | 38.98059 | -75.05517 | 22038 ft | 375 kts | 223° |
| 2026-05-03 20:58 | 38.95931 | -75.07465 | 22681 ft | 377 kts | 223° |
| 2026-05-03 20:58 | 38.93784 | -75.09430 | 23321 ft | 380 kts | 223° |
| 2026-05-03 20:58 | 38.91619 | -75.11409 | 23878 ft | 382 kts | 223° |
| 2026-05-03 20:59 | 38.89442 | -75.13397 | 24420 ft | 384 kts | 223° |
| 2026-05-03 20:59 | 38.87258 | -75.15390 | 24947 ft | 386 kts | 223° |
| 2026-05-03 20:59 | 38.85058 | -75.17397 | 25421 ft | 388 kts | 223° |
| 2026-05-03 20:59 | 38.82883 | -75.19377 | 25992 ft | 388 kts | 224° |
| 2026-05-03 21:00 | 38.80627 | -75.21333 | 26484 ft | 395 kts | 219° |
| 2026-05-03 21:00 | 38.79002 | -75.22497 | 26868 ft | 398 kts | 217° |
| 2026-05-03 21:00 | 38.75734 | -75.24738 | 27405 ft | 403 kts | 217° |
| 2026-05-03 21:00 | 38.73260 | -75.26438 | 27880 ft | 404 kts | 217° |
| 2026-05-03 21:01 | 38.70776 | -75.28146 | 28327 ft | 406 kts | 217° |
| 2026-05-03 21:01 | 38.68305 | -75.29845 | 28746 ft | 408 kts | 217° |
| 2026-05-03 21:01 | 38.65790 | -75.31573 | 29158 ft | 410 kts | 217° |
| 2026-05-03 21:01 | 38.63265 | -75.33305 | 29581 ft | 411 kts | 218° |
| 2026-05-03 21:02 | 38.60738 | -75.35036 | 30035 ft | 412 kts | 218° |
| 2026-05-03 21:02 | 38.58206 | -75.36773 | 30354 ft | 414 kts | 218° |
| 2026-05-03 21:02 | 38.55655 | -75.38524 | 30637 ft | 417 kts | 218° |
| 2026-05-03 21:02 | 38.53088 | -75.40282 | 30950 ft | 420 kts | 218° |
| 2026-05-03 21:03 | 38.50507 | -75.42048 | 31259 ft | 422 kts | 217° |
| 2026-05-03 21:03 | 38.47917 | -75.43817 | 31611 ft | 423 kts | 218° |
| 2026-05-03 21:03 | 38.45320 | -75.45588 | 31987 ft | 423 kts | 217° |
| 2026-05-03 21:03 | 38.42725 | -75.47356 | 32371 ft | 420 kts | 218° |
| 2026-05-03 21:04 | 38.40162 | -75.49096 | 33029 ft | 414 kts | 218° |
| 2026-05-03 21:04 | 38.37649 | -75.50807 | 33416 ft | 414 kts | 218° |
| 2026-05-03 21:04 | 38.35111 | -75.52538 | 33778 ft | 414 kts | 218° |
| 2026-05-03 21:04 | 38.32658 | -75.54414 | 34015 ft | 406 kts | 223° |
| 2026-05-03 21:05 | 38.28025 | -75.58480 | 34045 ft | 403 kts | 224° |
| 2026-05-03 21:05 | 38.23393 | -75.62534 | 34048 ft | 404 kts | 223° |
| 2026-05-03 21:06 | 38.18829 | -75.66500 | 34051 ft | 396 kts | 224° |
| 2026-05-03 21:06 | 38.14265 | -75.70473 | 34053 ft | 398 kts | 224° |
| 2026-05-03 21:07 | 38.09691 | -75.74443 | 34058 ft | 398 kts | 224° |
| 2026-05-03 21:07 | 38.05144 | -75.78380 | 34059 ft | 398 kts | 224° |
| 2026-05-03 21:08 | 38.00568 | -75.82333 | 34060 ft | 392 kts | 224° |
| 2026-05-03 21:08 | 37.96071 | -75.86215 | 34060 ft | 392 kts | 224° |
| 2026-05-03 21:09 | 37.91559 | -75.90112 | 34071 ft | 392 kts | 224° |
| 2026-05-03 21:09 | 37.87050 | -75.93994 | 34066 ft | 392 kts | 224° |
| 2026-05-03 21:10 | 37.82562 | -75.97852 | 34061 ft | 392 kts | 224° |
| 2026-05-03 21:10 | 37.78061 | -76.01710 | 34064 ft | 387 kts | 224° |
| 2026-05-03 21:11 | 37.73591 | -76.05546 | 34064 ft | 389 kts | 224° |
| 2026-05-03 21:11 | 37.69142 | -76.09355 | 34067 ft | 388 kts | 224° |
| 2026-05-03 21:12 | 37.64658 | -76.13184 | 34069 ft | 389 kts | 224° |
| 2026-05-03 21:12 | 37.59798 | -76.16474 | 34071 ft | 405 kts | 214° |
| 2026-05-03 21:13 | 37.54329 | -76.18661 | 34078 ft | 418 kts | 206° |
| 2026-05-03 21:13 | 37.48675 | -76.20438 | 34082 ft | 418 kts | 206° |
| 2026-05-03 21:14 | 37.43030 | -76.22237 | 34080 ft | 418 kts | 206° |
| 2026-05-03 21:14 | 37.37377 | -76.24042 | 34245 ft | 420 kts | 206° |
| 2026-05-03 21:15 | 37.34590 | -76.24927 | 34640 ft | 417 kts | 206° |
| 2026-05-03 21:15 | 37.31775 | -76.25822 | 34926 ft | 417 kts | 206° |
| 2026-05-03 21:15 | 37.28963 | -76.26718 | 35198 ft | 417 kts | 206° |
| 2026-05-03 21:15 | 37.26147 | -76.27614 | 35454 ft | 416 kts | 206° |
| 2026-05-03 21:16 | 37.23340 | -76.28506 | 35725 ft | 416 kts | 206° |
| 2026-05-03 21:16 | 37.20526 | -76.29399 | 35987 ft | 416 kts | 206° |
| 2026-05-03 21:16 | 37.17755 | -76.30278 | 36232 ft | 416 kts | 206° |
| 2026-05-03 21:16 | 37.14950 | -76.31167 | 36433 ft | 415 kts | 206° |
| 2026-05-03 21:17 | 37.12152 | -76.32051 | 36772 ft | 413 kts | 206° |
| 2026-05-03 21:17 | 37.10271 | -76.32645 | 36933 ft | 413 kts | 206° |
| 2026-05-03 21:17 | 37.06579 | -76.33814 | 37223 ft | 413 kts | 206° |
| 2026-05-03 21:17 | 37.03786 | -76.34697 | 37446 ft | 413 kts | 206° |
| 2026-05-03 21:18 | 37.00994 | -76.35579 | 37669 ft | 413 kts | 206° |
| 2026-05-03 21:18 | 36.98245 | -76.36446 | 37909 ft | 412 kts | 206° |
| 2026-05-03 21:18 | 36.95464 | -76.37322 | 38098 ft | 413 kts | 206° |
| 2026-05-03 21:18 | 36.92686 | -76.38197 | 38038 ft | 412 kts | 206° |
| 2026-05-03 21:19 | 36.87183 | -76.39922 | 38082 ft | 407 kts | 206° |
| 2026-05-03 21:19 | 36.81672 | -76.41658 | 38083 ft | 408 kts | 206° |
| 2026-05-03 21:20 | 36.76192 | -76.43378 | 38082 ft | 408 kts | 206° |
| 2026-05-03 21:20 | 36.70676 | -76.45105 | 38081 ft | 408 kts | 206° |
| 2026-05-03 21:21 | 36.65177 | -76.46820 | 38098 ft | 405 kts | 206° |
| 2026-05-03 21:21 | 36.59742 | -76.48520 | 38089 ft | 406 kts | 206° |
| 2026-05-03 21:22 | 36.54270 | -76.50227 | 38085 ft | 405 kts | 206° |
| 2026-05-03 21:22 | 36.48782 | -76.51938 | 38093 ft | 407 kts | 206° |
| 2026-05-03 21:23 | 36.43301 | -76.53637 | 38084 ft | 402 kts | 206° |
| 2026-05-03 21:23 | 36.37871 | -76.55322 | 38087 ft | 403 kts | 206° |
| 2026-05-03 21:24 | 36.33343 | -76.56728 | 38092 ft | 403 kts | 206° |
| 2026-05-03 21:24 | 36.27015 | -76.58687 | 38092 ft | 403 kts | 206° |
| 2026-05-03 21:25 | 36.22487 | -76.60086 | 38062 ft | 401 kts | 206° |
| 2026-05-03 21:25 | 36.17103 | -76.61743 | 38092 ft | 398 kts | 206° |
| 2026-05-03 21:26 | 36.11713 | -76.63409 | 38091 ft | 399 kts | 206° |
| 2026-05-03 21:26 | 36.06343 | -76.65063 | 38091 ft | 399 kts | 206° |
| 2026-05-03 21:27 | 36.00953 | -76.66720 | 38092 ft | 399 kts | 206° |
| 2026-05-03 21:27 | 35.95602 | -76.68355 | 38096 ft | 392 kts | 206° |
| 2026-05-03 21:28 | 35.90399 | -76.70236 | 38096 ft | 384 kts | 212° |
| 2026-05-03 21:28 | 35.85590 | -76.72926 | 38100 ft | 376 kts | 217° |
| 2026-05-03 21:29 | 35.80937 | -76.75797 | 38106 ft | 376 kts | 217° |
| 2026-05-03 21:29 | 35.76244 | -76.78666 | 38068 ft | 376 kts | 217° |
| 2026-05-03 21:30 | 35.71589 | -76.81498 | 38105 ft | 372 kts | 217° |
| 2026-05-03 21:30 | 35.66939 | -76.84330 | 38105 ft | 373 kts | 217° |
| 2026-05-03 21:31 | 35.62281 | -76.87162 | 38111 ft | 374 kts | 217° |
| 2026-05-03 21:31 | 35.57579 | -76.90019 | 38101 ft | 377 kts | 217° |
| 2026-05-03 21:32 | 35.52920 | -76.92869 | 38041 ft | 374 kts | 217° |
| 2026-05-03 21:32 | 35.48317 | -76.95692 | 38101 ft | 368 kts | 217° |
| 2026-05-03 21:33 | 35.43706 | -76.98527 | 38103 ft | 374 kts | 217° |
| 2026-05-03 21:33 | 35.38995 | -77.01417 | 38103 ft | 383 kts | 217° |
| 2026-05-03 21:34 | 35.34206 | -77.04342 | 38106 ft | 388 kts | 217° |
| 2026-05-03 21:34 | 35.29372 | -77.07282 | 38107 ft | 387 kts | 217° |
| 2026-05-03 21:35 | 35.24548 | -77.10219 | 38107 ft | 387 kts | 217° |
| 2026-05-03 21:35 | 35.19714 | -77.13159 | 38107 ft | 387 kts | 217° |
| 2026-05-03 21:36 | 35.14918 | -77.16073 | 38102 ft | 387 kts | 217° |
| 2026-05-03 21:36 | 35.10083 | -77.19007 | 38102 ft | 387 kts | 217° |
| 2026-05-03 21:37 | 35.05262 | -77.21925 | 38101 ft | 383 kts | 217° |
| 2026-05-03 21:37 | 35.00483 | -77.24820 | 38112 ft | 386 kts | 217° |
| 2026-05-03 21:38 | 34.95690 | -77.27719 | 38113 ft | 386 kts | 216° |
| 2026-05-03 21:38 | 34.90860 | -77.30632 | 38106 ft | 386 kts | 216° |
| 2026-05-03 21:39 | 34.86042 | -77.33535 | 38102 ft | 386 kts | 216° |
| 2026-05-03 21:39 | 34.81264 | -77.36405 | 38089 ft | 380 kts | 217° |
| 2026-05-03 21:40 | 34.76530 | -77.39252 | 38092 ft | 380 kts | 217° |
| 2026-05-03 21:40 | 34.71786 | -77.42105 | 38091 ft | 380 kts | 217° |
| 2026-05-03 21:41 | 34.67043 | -77.44949 | 38092 ft | 380 kts | 217° |
| 2026-05-03 21:41 | 34.62301 | -77.47789 | 38092 ft | 380 kts | 217° |
| 2026-05-03 21:42 | 34.57596 | -77.50600 | 38092 ft | 377 kts | 217° |
| 2026-05-03 21:42 | 34.52762 | -77.53209 | 38099 ft | 385 kts | 211° |
| 2026-05-03 21:43 | 34.47532 | -77.55024 | 38103 ft | 398 kts | 204° |
| 2026-05-03 21:43 | 34.42046 | -77.56223 | 38110 ft | 400 kts | 203° |
| 2026-05-03 21:44 | 34.36590 | -77.57416 | 38110 ft | 400 kts | 203° |
| 2026-05-03 21:44 | 34.31147 | -77.58609 | 38111 ft | 394 kts | 204° |
| 2026-05-03 21:45 | 34.25734 | -77.59811 | 38116 ft | 397 kts | 203° |
| 2026-05-03 21:45 | 34.20280 | -77.61014 | 38120 ft | 398 kts | 203° |
| 2026-05-03 21:46 | 34.14853 | -77.62200 | 38122 ft | 398 kts | 203° |
| 2026-05-03 21:46 | 34.09408 | -77.63393 | 38095 ft | 396 kts | 203° |
| 2026-05-03 21:47 | 34.04009 | -77.64573 | 38124 ft | 394 kts | 203° |
| 2026-05-03 21:47 | 33.98612 | -77.65758 | 38130 ft | 394 kts | 203° |
| 2026-05-03 21:48 | 33.93234 | -77.66934 | 38124 ft | 394 kts | 203° |
| 2026-05-03 21:48 | 33.87838 | -77.68113 | 38127 ft | 394 kts | 203° |
| 2026-05-03 21:49 | 33.82438 | -77.69288 | 38128 ft | 391 kts | 203° |
| 2026-05-03 21:49 | 33.77075 | -77.70457 | 38132 ft | 392 kts | 203° |
| 2026-05-03 21:50 | 33.71746 | -77.71618 | 38132 ft | 392 kts | 203° |
| 2026-05-03 21:50 | 33.66454 | -77.72967 | 38132 ft | 384 kts | 208° |
| 2026-05-03 21:51 | 33.61299 | -77.74672 | 38135 ft | 384 kts | 208° |
| 2026-05-03 21:51 | 33.56164 | -77.76355 | 38139 ft | 381 kts | 208° |
| 2026-05-03 21:52 | 33.51030 | -77.78035 | 38138 ft | 382 kts | 208° |
| 2026-05-03 21:52 | 33.45930 | -77.79700 | 38141 ft | 382 kts | 208° |
| 2026-05-03 21:53 | 33.40798 | -77.81371 | 38140 ft | 382 kts | 208° |
| 2026-05-03 21:53 | 33.35666 | -77.83041 | 38143 ft | 382 kts | 208° |
| 2026-05-03 21:54 | 33.30560 | -77.84698 | 38144 ft | 378 kts | 208° |
| 2026-05-03 21:54 | 33.25496 | -77.86345 | 38141 ft | 379 kts | 208° |
| 2026-05-03 21:55 | 33.20400 | -77.87997 | 38142 ft | 379 kts | 208° |
| 2026-05-03 21:55 | 33.15308 | -77.89647 | 38146 ft | 379 kts | 208° |
| 2026-05-03 21:56 | 33.09427 | -77.91549 | 38107 ft | 379 kts | 207° |
| 2026-05-03 21:56 | 33.03288 | -77.93535 | 38140 ft | 376 kts | 208° |
| 2026-05-03 21:57 | 32.98267 | -77.95256 | 38149 ft | 375 kts | 208° |
| 2026-05-03 21:57 | 32.90805 | -77.97833 | 38143 ft | 377 kts | 208° |
| 2026-05-03 21:58 | 32.80493 | -78.01350 | 38143 ft | 377 kts | 208° |
| 2026-05-03 21:58 | 32.68294 | -78.05504 | 38142 ft | 377 kts | 208° |
| 2026-05-03 21:59 | 32.63242 | -78.07220 | 38144 ft | 377 kts | 208° |
| 2026-05-03 21:59 | 32.58224 | -78.08923 | 38096 ft | 376 kts | 208° |
| 2026-05-03 22:00 | 32.53202 | -78.10624 | 38146 ft | 374 kts | 208° |
| 2026-05-03 22:00 | 32.47349 | -78.12607 | 38146 ft | 375 kts | 208° |
| 2026-05-03 22:01 | 32.40185 | -78.15026 | 38140 ft | 368 kts | 208° |
| 2026-05-03 22:01 | 32.35271 | -78.16685 | 38141 ft | 371 kts | 208° |
| 2026-05-03 22:02 | 32.30301 | -78.18371 | 38135 ft | 374 kts | 207° |
| 2026-05-03 22:02 | 32.25299 | -78.20051 | 38139 ft | 373 kts | 207° |
| 2026-05-03 22:03 | 32.20297 | -78.21732 | 38136 ft | 373 kts | 207° |
| 2026-05-03 22:03 | 32.13506 | -78.24013 | 38137 ft | 373 kts | 207° |
| 2026-05-03 22:04 | 32.07242 | -78.26115 | 38142 ft | 373 kts | 207° |
| 2026-05-03 22:04 | 32.02266 | -78.27782 | 38144 ft | 371 kts | 207° |
| 2026-05-03 22:05 | 31.97315 | -78.29440 | 38142 ft | 372 kts | 207° |
| 2026-05-03 22:05 | 31.92340 | -78.31103 | 38142 ft | 372 kts | 207° |
| 2026-05-03 22:06 | 31.87361 | -78.32765 | 38142 ft | 371 kts | 207° |
| 2026-05-03 22:06 | 31.82413 | -78.34416 | 38136 ft | 372 kts | 207° |
| 2026-05-03 22:07 | 31.77438 | -78.36074 | 38138 ft | 371 kts | 207° |
| 2026-05-03 22:07 | 31.72463 | -78.37729 | 38135 ft | 371 kts | 207° |
| 2026-05-03 22:08 | 31.65590 | -78.40013 | 38137 ft | 371 kts | 207° |
| 2026-05-03 22:08 | 31.52478 | -78.44363 | 38136 ft | 372 kts | 206° |
| 2026-05-03 22:09 | 31.47481 | -78.45993 | 38132 ft | 372 kts | 206° |
| 2026-05-03 22:10 | 31.40026 | -78.48405 | 38132 ft | 372 kts | 206° |
| 2026-05-03 22:10 | 31.35037 | -78.50021 | 38132 ft | 372 kts | 206° |
| 2026-05-03 22:11 | 31.30052 | -78.51636 | 38132 ft | 372 kts | 206° |
| 2026-05-03 22:11 | 31.25053 | -78.53255 | 38144 ft | 374 kts | 206° |
| 2026-05-03 22:12 | 31.20886 | -78.54601 | 38122 ft | 373 kts | 206° |
| 2026-05-03 22:12 | 31.15061 | -78.56480 | 38128 ft | 373 kts | 206° |
| 2026-05-03 22:13 | 31.10050 | -78.58095 | 38122 ft | 373 kts | 206° |
| 2026-05-03 22:13 | 31.05879 | -78.59438 | 38122 ft | 373 kts | 206° |
| 2026-05-03 22:14 | 31.00865 | -78.61052 | 38091 ft | 374 kts | 206° |
| 2026-05-03 22:14 | 30.91965 | -78.63911 | 38126 ft | 375 kts | 206° |
| 2026-05-03 22:15 | 30.83207 | -78.66718 | 38121 ft | 375 kts | 206° |
| 2026-05-03 22:15 | 30.78193 | -78.68324 | 38125 ft | 375 kts | 206° |
| 2026-05-03 22:16 | 30.73158 | -78.69936 | 38112 ft | 375 kts | 206° |
| 2026-05-03 22:16 | 30.68097 | -78.71554 | 38118 ft | 377 kts | 206° |
| 2026-05-03 22:17 | 30.63028 | -78.73169 | 38120 ft | 377 kts | 206° |
| 2026-05-03 22:17 | 30.57994 | -78.74773 | 38118 ft | 377 kts | 206° |
| 2026-05-03 22:18 | 30.52935 | -78.76384 | 38114 ft | 377 kts | 206° |
| 2026-05-03 22:18 | 30.47573 | -78.78089 | 38101 ft | 377 kts | 206° |
| 2026-05-03 22:19 | 30.37386 | -78.81324 | 38113 ft | 379 kts | 206° |
| 2026-05-03 22:19 | 30.32255 | -78.82950 | 38113 ft | 379 kts | 206° |
| 2026-05-03 22:20 | 30.27185 | -78.84555 | 38114 ft | 379 kts | 206° |
| 2026-05-03 22:20 | 30.17709 | -78.87552 | 38113 ft | 379 kts | 206° |
| 2026-05-03 22:21 | 30.10241 | -78.89909 | 38108 ft | 379 kts | 206° |
| 2026-05-03 22:21 | 30.05149 | -78.91515 | 38107 ft | 379 kts | 206° |
| 2026-05-03 22:22 | 30.00050 | -78.93121 | 38108 ft | 379 kts | 206° |
| 2026-05-03 22:22 | 29.90558 | -78.96107 | 38102 ft | 381 kts | 206° |
| 2026-05-03 22:23 | 29.82220 | -78.98722 | 38102 ft | 383 kts | 205° |
| 2026-05-03 22:23 | 29.76925 | -78.99912 | 38103 ft | 391 kts | 200° |
| 2026-05-03 22:24 | 29.71552 | -79.00891 | 38099 ft | 391 kts | 200° |
| 2026-05-03 22:24 | 29.66179 | -79.01881 | 38098 ft | 390 kts | 200° |
| 2026-05-03 22:25 | 29.60791 | -79.02878 | 38101 ft | 393 kts | 200° |
| 2026-05-03 22:25 | 29.55386 | -79.03873 | 38092 ft | 393 kts | 200° |
| 2026-05-03 22:26 | 29.50019 | -79.04861 | 38094 ft | 393 kts | 200° |
| 2026-05-03 22:26 | 29.44599 | -79.05859 | 38125 ft | 393 kts | 200° |
| 2026-05-03 22:27 | 29.39202 | -79.06850 | 38092 ft | 392 kts | 200° |
| 2026-05-03 22:27 | 29.33824 | -79.07840 | 38091 ft | 394 kts | 200° |
| 2026-05-03 22:28 | 29.26420 | -79.09197 | 38087 ft | 394 kts | 200° |
| 2026-05-03 22:28 | 29.15646 | -79.11168 | 38087 ft | 394 kts | 200° |
| 2026-05-03 22:29 | 29.04798 | -79.13152 | 38084 ft | 397 kts | 200° |
| 2026-05-03 22:29 | 28.93895 | -79.15137 | 38080 ft | 397 kts | 200° |
| 2026-05-03 22:30 | 28.82990 | -79.17120 | 38080 ft | 397 kts | 200° |
| 2026-05-03 22:30 | 28.72055 | -79.19106 | 38073 ft | 398 kts | 200° |
| 2026-05-03 22:31 | 28.61112 | -79.21087 | 38069 ft | 398 kts | 200° |
| 2026-05-03 22:31 | 28.50154 | -79.23069 | 38067 ft | 400 kts | 200° |
| 2026-05-03 22:31 | 28.44760 | -79.24035 | 37650 ft | 388 kts | 200° |
| 2026-05-03 22:32 | 28.39515 | -79.24973 | 37118 ft | 382 kts | 200° |
| 2026-05-03 22:32 | 28.34173 | -79.25954 | 36615 ft | 391 kts | 200° |
| 2026-05-03 22:32 | 28.28965 | -79.27386 | 36119 ft | 383 kts | 206° |
| 2026-05-03 22:32 | 28.25711 | -79.28454 | 35820 ft | 385 kts | 206° |
| 2026-05-03 22:33 | 28.23117 | -79.29300 | 35516 ft | 387 kts | 205° |
| 2026-05-03 22:33 | 28.20510 | -79.30150 | 35279 ft | 391 kts | 205° |
| 2026-05-03 22:33 | 28.17918 | -79.30991 | 35043 ft | 392 kts | 205° |
| 2026-05-03 22:33 | 28.14651 | -79.32047 | 34758 ft | 393 kts | 205° |
| 2026-05-03 22:34 | 28.09384 | -79.33752 | 34298 ft | 395 kts | 205° |
| 2026-05-03 22:34 | 28.04086 | -79.35467 | 33813 ft | 397 kts | 205° |
| 2026-05-03 22:34 | 27.98757 | -79.37191 | 33293 ft | 399 kts | 205° |
| 2026-05-03 22:34 | 27.95748 | -79.38164 | 33006 ft | 400 kts | 204° |
| 2026-05-03 22:35 | 27.93055 | -79.39037 | 32711 ft | 404 kts | 204° |
| 2026-05-03 22:35 | 27.90323 | -79.39923 | 32458 ft | 410 kts | 204° |
| 2026-05-03 22:35 | 27.87591 | -79.40803 | 32205 ft | 406 kts | 204° |
| 2026-05-03 22:35 | 27.84907 | -79.41664 | 31963 ft | 406 kts | 204° |
| 2026-05-03 22:36 | 27.82188 | -79.42540 | 31722 ft | 408 kts | 204° |
| 2026-05-03 22:36 | 27.79449 | -79.43423 | 31494 ft | 408 kts | 204° |
| 2026-05-03 22:36 | 27.76711 | -79.44304 | 31252 ft | 409 kts | 203° |
| 2026-05-03 22:36 | 27.73967 | -79.45188 | 31015 ft | 410 kts | 203° |
| 2026-05-03 22:37 | 27.71210 | -79.46075 | 30780 ft | 411 kts | 203° |
| 2026-05-03 22:37 | 27.68462 | -79.46957 | 30546 ft | 410 kts | 203° |
| 2026-05-03 22:37 | 27.65720 | -79.47837 | 30296 ft | 409 kts | 203° |
| 2026-05-03 22:37 | 27.62974 | -79.48719 | 30064 ft | 410 kts | 202° |
| 2026-05-03 22:38 | 27.60238 | -79.49596 | 29796 ft | 408 kts | 202° |
| 2026-05-03 22:38 | 27.57514 | -79.50468 | 29521 ft | 406 kts | 202° |
| 2026-05-03 22:38 | 27.54805 | -79.51336 | 29251 ft | 404 kts | 202° |
| 2026-05-03 22:38 | 27.52137 | -79.52190 | 28990 ft | 403 kts | 202° |
| 2026-05-03 22:39 | 27.49440 | -79.53054 | 28728 ft | 402 kts | 202° |
| 2026-05-03 22:39 | 27.46753 | -79.53914 | 28469 ft | 400 kts | 202° |
| 2026-05-03 22:39 | 27.44076 | -79.54770 | 28210 ft | 399 kts | 202° |
| 2026-05-03 22:39 | 27.41416 | -79.55622 | 27988 ft | 392 kts | 204° |
| 2026-05-03 22:40 | 27.38986 | -79.56810 | 27848 ft | 370 kts | 217° |
| 2026-05-03 22:40 | 27.37016 | -79.58589 | 27401 ft | 360 kts | 230° |
| 2026-05-03 22:40 | 27.35602 | -79.60885 | 26754 ft | 356 kts | 245° |
| 2026-05-03 22:40 | 27.34869 | -79.63535 | 26133 ft | 356 kts | 259° |
| 2026-05-03 22:41 | 27.34621 | -79.66299 | 25549 ft | 355 kts | 262° |
| 2026-05-03 22:41 | 27.34413 | -79.69024 | 24991 ft | 352 kts | 262° |
| 2026-05-03 22:41 | 27.34202 | -79.71760 | 24456 ft | 349 kts | 262° |
| 2026-05-03 22:41 | 27.33990 | -79.74475 | 24098 ft | 346 kts | 262° |
| 2026-05-03 22:42 | 27.33777 | -79.77173 | 23765 ft | 348 kts | 262° |
| 2026-05-03 22:42 | 27.33560 | -79.79890 | 23411 ft | 348 kts | 262° |
| 2026-05-03 22:42 | 27.33351 | -79.82581 | 23015 ft | 342 kts | 262° |
| 2026-05-03 22:42 | 27.33147 | -79.85223 | 22626 ft | 337 kts | 262° |
| 2026-05-03 22:43 | 27.32943 | -79.87852 | 22250 ft | 337 kts | 262° |
| 2026-05-03 22:43 | 27.32469 | -79.90432 | 21942 ft | 343 kts | 248° |
| 2026-05-03 22:43 | 27.31273 | -79.92753 | 21702 ft | 352 kts | 233° |
| 2026-05-03 22:43 | 27.29452 | -79.94602 | 21456 ft | 356 kts | 217° |
| 2026-05-03 22:44 | 27.27174 | -79.95754 | 21211 ft | 365 kts | 201° |
| 2026-05-03 22:44 | 27.24611 | -79.96143 | 20972 ft | 376 kts | 189° |
| 2026-05-03 22:44 | 27.21980 | -79.96124 | 20730 ft | 379 kts | 185° |
| 2026-05-03 22:44 | 27.19336 | -79.95970 | 20486 ft | 378 kts | 184° |
| 2026-05-03 22:45 | 27.16712 | -79.95797 | 20247 ft | 377 kts | 184° |
| 2026-05-03 22:45 | 27.14089 | -79.95640 | 20011 ft | 376 kts | 185° |
| 2026-05-03 22:45 | 27.11480 | -79.95503 | 19772 ft | 375 kts | 185° |
| 2026-05-03 22:45 | 27.08874 | -79.95383 | 19518 ft | 376 kts | 184° |
| 2026-05-03 22:46 | 27.06292 | -79.95268 | 19286 ft | 376 kts | 184° |
| 2026-05-03 22:46 | 27.03686 | -79.95151 | 19059 ft | 374 kts | 184° |
| 2026-05-03 22:46 | 27.01086 | -79.95034 | 18828 ft | 373 kts | 184° |
| 2026-05-03 22:46 | 26.98489 | -79.94919 | 18599 ft | 372 kts | 184° |
| 2026-05-03 22:47 | 26.95892 | -79.94805 | 18373 ft | 373 kts | 184° |
| 2026-05-03 22:47 | 26.93295 | -79.94692 | 18124 ft | 374 kts | 184° |
| 2026-05-03 22:47 | 26.90693 | -79.94558 | 17786 ft | 373 kts | 183° |
| 2026-05-03 22:47 | 26.88137 | -79.94435 | 17238 ft | 370 kts | 184° |
| 2026-05-03 22:48 | 26.85578 | -79.94330 | 16694 ft | 366 kts | 184° |
| 2026-05-03 22:48 | 26.83058 | -79.93930 | 16301 ft | 368 kts | 168° |
| 2026-05-03 22:48 | 26.80737 | -79.92633 | 16033 ft | 382 kts | 149° |
| 2026-05-03 22:48 | 26.78802 | -79.90545 | 15788 ft | 390 kts | 135° |
| 2026-05-03 22:49 | 26.78276 | -79.89851 | 15719 ft | 390 kts | 134° |
| 2026-05-03 22:49 | 26.77596 | -79.88924 | 15631 ft | 388 kts | 134° |
| 2026-05-03 22:49 | 26.75959 | -79.86614 | 15511 ft | 377 kts | 133° |
| 2026-05-03 22:50 | 26.74356 | -79.84336 | 15190 ft | 370 kts | 133° |
| 2026-05-03 22:50 | 26.72762 | -79.82099 | 14769 ft | 365 kts | 133° |
| 2026-05-03 22:50 | 26.71180 | -79.79905 | 14239 ft | 358 kts | 134° |
| 2026-05-03 22:50 | 26.69648 | -79.77733 | 13653 ft | 353 kts | 127° |
| 2026-05-03 22:51 | 26.68680 | -79.75215 | 13042 ft | 354 kts | 104° |
| 2026-05-03 22:51 | 26.68584 | -79.72492 | 12440 ft | 351 kts | 81° |
| 2026-05-03 22:51 | 26.69373 | -79.70010 | 12107 ft | 335 kts | 56° |
| 2026-05-03 22:51 | 26.70877 | -79.68164 | 11995 ft | 308 kts | 30° |
| 2026-05-03 22:52 | 26.72724 | -79.67273 | 11984 ft | 277 kts | 3° |
| 2026-05-03 22:52 | 26.74548 | -79.67283 | 11983 ft | 255 kts | 347° |
| 2026-05-03 22:52 | 26.76334 | -79.67448 | 11986 ft | 261 kts | 353° |
| 2026-05-03 22:52 | 26.78161 | -79.67306 | 11985 ft | 265 kts | 3° |
| 2026-05-03 22:53 | 26.79972 | -79.67221 | 11996 ft | 255 kts | 341° |
| 2026-05-03 22:53 | 26.81517 | -79.68031 | 11987 ft | 240 kts | 311° |
| 2026-05-03 22:53 | 26.82404 | -79.69508 | 11984 ft | 230 kts | 282° |
| 2026-05-03 22:53 | 26.82445 | -79.71256 | 11987 ft | 227 kts | 253° |
| 2026-05-03 22:54 | 26.81619 | -79.72749 | 11989 ft | 230 kts | 223° |
| 2026-05-03 22:54 | 26.80162 | -79.73536 | 11991 ft | 240 kts | 197° |
| 2026-05-03 22:54 | 26.78576 | -79.74069 | 11987 ft | 235 kts | 207° |
| 2026-05-03 22:54 | 26.77106 | -79.74833 | 11988 ft | 233 kts | 210° |
| 2026-05-03 22:55 | 26.75645 | -79.75624 | 11986 ft | 233 kts | 210° |
| 2026-05-03 22:55 | 26.74160 | -79.76377 | 11986 ft | 234 kts | 208° |
| 2026-05-03 22:55 | 26.72658 | -79.77088 | 11990 ft | 235 kts | 207° |
| 2026-05-03 22:55 | 26.71143 | -79.77773 | 11990 ft | 234 kts | 206° |
| 2026-05-03 22:56 | 26.69652 | -79.78470 | 11986 ft | 232 kts | 213° |
| 2026-05-03 22:56 | 26.68401 | -79.79568 | 11988 ft | 228 kts | 232° |
| 2026-05-03 22:56 | 26.67602 | -79.81078 | 11989 ft | 225 kts | 252° |
| 2026-05-03 22:56 | 26.67364 | -79.82779 | 11990 ft | 226 kts | 271° |
| 2026-05-03 22:57 | 26.67715 | -79.84501 | 11992 ft | 233 kts | 291° |
| 2026-05-03 22:57 | 26.68657 | -79.85998 | 11989 ft | 239 kts | 312° |
| 2026-05-03 22:57 | 26.70094 | -79.86996 | 11990 ft | 251 kts | 334° |
| 2026-05-03 22:57 | 26.71848 | -79.87271 | 11988 ft | 262 kts | 360° |
| 2026-05-03 22:58 | 26.73630 | -79.86714 | 11993 ft | 271 kts | 17° |
| 2026-05-03 22:58 | 26.75357 | -79.85935 | 11987 ft | 271 kts | 17° |
| 2026-05-03 22:58 | 26.77107 | -79.85149 | 11988 ft | 270 kts | 17° |
| 2026-05-03 22:58 | 26.78855 | -79.84371 | 11989 ft | 270 kts | 16° |
| 2026-05-03 22:59 | 26.80605 | -79.83598 | 11989 ft | 270 kts | 16° |
| 2026-05-03 22:59 | 26.82346 | -79.82817 | 11988 ft | 269 kts | 21° |
| 2026-05-03 22:59 | 26.83848 | -79.81533 | 11987 ft | 278 kts | 49° |
| 2026-05-03 22:59 | 26.84707 | -79.79587 | 11982 ft | 282 kts | 79° |
| 2026-05-03 23:00 | 26.84802 | -79.78146 | 11980 ft | 280 kts | 98° |
| 2026-05-03 23:00 | 26.83859 | -79.75543 | 11990 ft | 268 kts | 137° |
| 2026-05-03 23:00 | 26.82403 | -79.74341 | 11992 ft | 256 kts | 164° |
| 2026-05-03 23:00 | 26.81283 | -79.73990 | 11991 ft | 249 kts | 180° |
| 2026-05-03 23:01 | 26.79600 | -79.74109 | 11980 ft | 239 kts | 202° |
| 2026-05-03 23:01 | 26.78073 | -79.74769 | 11988 ft | 234 kts | 207° |
| 2026-05-03 23:01 | 26.76557 | -79.75450 | 11989 ft | 234 kts | 207° |
| 2026-05-03 23:01 | 26.75038 | -79.76117 | 11988 ft | 234 kts | 206° |
| 2026-05-03 23:02 | 26.73516 | -79.76781 | 11992 ft | 235 kts | 206° |
| 2026-05-03 23:02 | 26.71989 | -79.77447 | 11992 ft | 235 kts | 206° |
| 2026-05-03 23:02 | 26.70463 | -79.78112 | 11991 ft | 234 kts | 206° |
| 2026-05-03 23:02 | 26.69040 | -79.78945 | 11988 ft | 229 kts | 222° |
| 2026-05-03 23:03 | 26.67991 | -79.80235 | 11993 ft | 226 kts | 241° |
| 2026-05-03 23:03 | 26.67440 | -79.81866 | 11989 ft | 225 kts | 261° |
| 2026-05-03 23:03 | 26.67474 | -79.83612 | 11989 ft | 227 kts | 281° |
| 2026-05-03 23:03 | 26.68105 | -79.85249 | 11987 ft | 233 kts | 301° |
| 2026-05-03 23:04 | 26.69280 | -79.86527 | 11989 ft | 242 kts | 322° |
| 2026-05-03 23:04 | 26.70878 | -79.87214 | 11990 ft | 254 kts | 346° |
| 2026-05-03 23:04 | 26.72674 | -79.87097 | 11995 ft | 267 kts | 12° |
| 2026-05-03 23:04 | 26.74402 | -79.86356 | 11990 ft | 270 kts | 17° |
| 2026-05-03 23:05 | 26.76145 | -79.85569 | 11988 ft | 269 kts | 17° |
| 2026-05-03 23:05 | 26.77882 | -79.84792 | 11988 ft | 269 kts | 17° |
| 2026-05-03 23:05 | 26.79622 | -79.84021 | 11988 ft | 269 kts | 16° |
| 2026-05-03 23:05 | 26.81366 | -79.83253 | 11998 ft | 268 kts | 16° |
| 2026-05-03 23:06 | 26.83048 | -79.82353 | 11988 ft | 271 kts | 33° |
| 2026-05-03 23:06 | 26.84305 | -79.80756 | 11989 ft | 280 kts | 62° |
| 2026-05-03 23:06 | 26.84796 | -79.78659 | 11984 ft | 280 kts | 92° |
| 2026-05-03 23:06 | 26.84393 | -79.76573 | 11990 ft | 272 kts | 122° |
| 2026-05-03 23:07 | 26.83232 | -79.74970 | 11990 ft | 262 kts | 149° |
| 2026-05-03 23:07 | 26.81635 | -79.74106 | 11989 ft | 250 kts | 174° |
| 2026-05-03 23:07 | 26.79963 | -79.74038 | 11983 ft | 240 kts | 197° |
| 2026-05-03 23:07 | 26.78411 | -79.74623 | 11986 ft | 233 kts | 207° |
| 2026-05-03 23:08 | 26.76904 | -79.75300 | 11987 ft | 233 kts | 207° |
| 2026-05-03 23:08 | 26.75393 | -79.75965 | 11988 ft | 233 kts | 207° |
| 2026-05-03 23:08 | 26.73878 | -79.76625 | 11987 ft | 233 kts | 206° |
| 2026-05-03 23:08 | 26.72363 | -79.77286 | 11986 ft | 234 kts | 206° |
| 2026-05-03 23:09 | 26.70845 | -79.77947 | 11986 ft | 233 kts | 206° |
| 2026-05-03 23:09 | 26.69377 | -79.78686 | 11988 ft | 229 kts | 218° |
| 2026-05-03 23:09 | 26.68231 | -79.79859 | 11993 ft | 226 kts | 237° |
| 2026-05-03 23:09 | 26.67546 | -79.81419 | 11989 ft | 224 kts | 256° |
| 2026-05-03 23:10 | 26.67436 | -79.83146 | 11988 ft | 225 kts | 276° |
| 2026-05-03 23:10 | 26.67922 | -79.84821 | 11988 ft | 231 kts | 296° |
| 2026-05-03 23:10 | 26.68978 | -79.86205 | 11988 ft | 240 kts | 317° |
| 2026-05-03 23:10 | 26.70499 | -79.87044 | 11987 ft | 251 kts | 341° |
| 2026-05-03 23:11 | 26.72282 | -79.87112 | 11991 ft | 264 kts | 7° |
| 2026-05-03 23:11 | 26.74046 | -79.86424 | 11988 ft | 270 kts | 17° |
| 2026-05-03 23:11 | 26.75769 | -79.85645 | 11986 ft | 269 kts | 17° |
| 2026-05-03 23:11 | 26.77512 | -79.84863 | 11987 ft | 269 kts | 17° |
| 2026-05-03 23:12 | 26.79251 | -79.84091 | 11984 ft | 269 kts | 17° |
| 2026-05-03 23:12 | 26.80996 | -79.83323 | 11996 ft | 269 kts | 16° |
| 2026-05-03 23:12 | 26.82706 | -79.82489 | 11982 ft | 270 kts | 28° |
| 2026-05-03 23:12 | 26.84061 | -79.81008 | 11985 ft | 279 kts | 57° |
| 2026-05-03 23:13 | 26.84690 | -79.78960 | 11982 ft | 280 kts | 88° |
| 2026-05-03 23:13 | 26.84428 | -79.76839 | 11986 ft | 274 kts | 117° |
| 2026-05-03 23:13 | 26.83360 | -79.75144 | 11986 ft | 264 kts | 146° |
| 2026-05-03 23:13 | 26.81800 | -79.74183 | 11985 ft | 252 kts | 172° |
| 2026-05-03 23:14 | 26.80105 | -79.74024 | 11987 ft | 241 kts | 194° |
| 2026-05-03 23:14 | 26.78541 | -79.74561 | 11985 ft | 233 kts | 208° |
| 2026-05-03 23:14 | 26.77036 | -79.75242 | 11983 ft | 233 kts | 207° |
| 2026-05-03 23:14 | 26.75522 | -79.75909 | 11985 ft | 233 kts | 207° |
| 2026-05-03 23:15 | 26.74026 | -79.76562 | 11989 ft | 233 kts | 206° |
| 2026-05-03 23:15 | 26.72512 | -79.77221 | 11989 ft | 234 kts | 206° |
| 2026-05-03 23:15 | 26.70999 | -79.77881 | 11989 ft | 234 kts | 206° |
| 2026-05-03 23:15 | 26.69775 | -79.78413 | 11991 ft | 233 kts | 206° |
| 2026-05-03 23:16 | 26.69427 | -79.78566 | 11994 ft | 242 kts | 206° |
| 2026-05-03 23:16 | 26.67733 | -79.79323 | 11993 ft | 282 kts | 206° |
| 2026-05-03 23:16 | 26.65797 | -79.80227 | 11991 ft | 318 kts | 210° |
| 2026-05-03 23:16 | 26.64005 | -79.81728 | 11992 ft | 325 kts | 231° |
| 2026-05-03 23:17 | 26.62758 | -79.83818 | 11993 ft | 323 kts | 242° |
| 2026-05-03 23:17 | 26.61669 | -79.86018 | 11991 ft | 323 kts | 242° |
| 2026-05-03 23:17 | 26.60720 | -79.88255 | 11994 ft | 312 kts | 255° |
| 2026-05-03 23:17 | 26.60527 | -79.90559 | 11995 ft | 297 kts | 275° |
| 2026-05-03 23:18 | 26.61092 | -79.92712 | 11993 ft | 285 kts | 294° |
| 2026-05-03 23:18 | 26.62274 | -79.94441 | 11993 ft | 276 kts | 314° |
| 2026-05-03 23:18 | 26.63868 | -79.95567 | 11993 ft | 268 kts | 333° |
| 2026-05-03 23:18 | 26.65657 | -79.96013 | 11985 ft | 261 kts | 352° |
| 2026-05-03 23:19 | 26.67447 | -79.95781 | 11991 ft | 265 kts | 12° |
| 2026-05-03 23:19 | 26.69138 | -79.94868 | 11988 ft | 275 kts | 33° |
| 2026-05-03 23:19 | 26.70468 | -79.93315 | 11986 ft | 279 kts | 56° |
| 2026-05-03 23:19 | 26.71230 | -79.91315 | 11987 ft | 281 kts | 79° |
| 2026-05-03 23:20 | 26.71317 | -79.89176 | 11989 ft | 279 kts | 101° |
| 2026-05-03 23:20 | 26.71042 | -79.87029 | 11986 ft | 278 kts | 101° |
| 2026-05-03 23:20 | 26.70586 | -79.84948 | 11990 ft | 272 kts | 120° |
| 2026-05-03 23:20 | 26.69676 | -79.83088 | 11988 ft | 271 kts | 128° |
| 2026-05-03 23:21 | 26.68595 | -79.81374 | 11989 ft | 268 kts | 132° |
| 2026-05-03 23:21 | 26.67473 | -79.79712 | 11988 ft | 267 kts | 132° |
| 2026-05-03 23:21 | 26.66719 | -79.78471 | 11985 ft | 269 kts | 124° |
| 2026-05-03 23:21 | 26.65906 | -79.76968 | 11993 ft | 298 kts | 127° |
| 2026-05-03 23:22 | 26.63725 | -79.73159 | 11988 ft | 277 kts | 127° |
| 2026-05-03 23:22 | 26.62715 | -79.71374 | 11989 ft | 271 kts | 127° |
| 2026-05-03 23:22 | 26.61696 | -79.69579 | 11984 ft | 274 kts | 127° |
| 2026-05-03 23:23 | 26.60950 | -79.67646 | 11986 ft | 279 kts | 102° |
| 2026-05-03 23:23 | 26.61025 | -79.65469 | 11982 ft | 285 kts | 73° |
| 2026-05-03 23:23 | 26.61953 | -79.63534 | 11988 ft | 283 kts | 44° |
| 2026-05-03 23:23 | 26.63520 | -79.62282 | 11986 ft | 274 kts | 15° |
| 2026-05-03 23:24 | 26.65344 | -79.61979 | 11983 ft | 261 kts | 346° |
| 2026-05-03 23:24 | 26.66987 | -79.62649 | 11986 ft | 247 kts | 317° |
| 2026-05-03 23:24 | 26.68109 | -79.64035 | 11986 ft | 237 kts | 295° |
| 2026-05-03 23:24 | 26.68693 | -79.65724 | 11985 ft | 231 kts | 277° |
| 2026-05-03 23:25 | 26.68847 | -79.67505 | 11984 ft | 230 kts | 272° |
| 2026-05-03 23:25 | 26.69006 | -79.69281 | 11986 ft | 230 kts | 273° |
| 2026-05-03 23:25 | 26.69195 | -79.71057 | 11984 ft | 230 kts | 274° |
| 2026-05-03 23:25 | 26.69391 | -79.72811 | 11984 ft | 230 kts | 274° |
| 2026-05-03 23:26 | 26.69590 | -79.74590 | 11986 ft | 231 kts | 274° |
| 2026-05-03 23:26 | 26.69788 | -79.76369 | 11986 ft | 230 kts | 274° |
| 2026-05-03 23:26 | 26.69984 | -79.78143 | 11986 ft | 230 kts | 274° |
| 2026-05-03 23:26 | 26.70183 | -79.79918 | 11994 ft | 230 kts | 274° |
| 2026-05-03 23:27 | 26.70381 | -79.81695 | 11983 ft | 229 kts | 274° |
| 2026-05-03 23:27 | 26.70576 | -79.83469 | 11987 ft | 230 kts | 274° |
| 2026-05-03 23:27 | 26.70771 | -79.85246 | 11984 ft | 230 kts | 274° |
| 2026-05-03 23:27 | 26.70965 | -79.87021 | 11987 ft | 230 kts | 274° |
| 2026-05-03 23:28 | 26.71356 | -79.88733 | 11986 ft | 234 kts | 295° |
| 2026-05-03 23:28 | 26.72498 | -79.90073 | 11987 ft | 247 kts | 324° |
| 2026-05-03 23:28 | 26.74155 | -79.90709 | 11986 ft | 257 kts | 342° |
| 2026-05-03 23:28 | 26.75909 | -79.91106 | 11983 ft | 257 kts | 342° |
| 2026-05-03 23:29 | 26.77659 | -79.91511 | 11982 ft | 254 kts | 336° |
| 2026-05-03 23:29 | 26.79136 | -79.92464 | 11984 ft | 241 kts | 307° |
| 2026-05-03 23:29 | 26.79930 | -79.94045 | 11986 ft | 232 kts | 278° |
| 2026-05-03 23:29 | 26.79855 | -79.95802 | 11984 ft | 227 kts | 249° |
| 2026-05-03 23:30 | 26.78941 | -79.97233 | 11986 ft | 232 kts | 220° |
| 2026-05-03 23:30 | 26.77431 | -79.97929 | 11985 ft | 244 kts | 191° |
| 2026-05-03 23:30 | 26.75728 | -79.97730 | 11987 ft | 254 kts | 173° |
| 2026-05-03 23:30 | 26.74009 | -79.97270 | 11990 ft | 254 kts | 172° |
| 2026-05-03 23:31 | 26.72381 | -79.96456 | 11992 ft | 265 kts | 146° |
| 2026-05-03 23:31 | 26.71221 | -79.94812 | 11987 ft | 277 kts | 116° |
| 2026-05-03 23:31 | 26.70769 | -79.92692 | 11986 ft | 283 kts | 97° |
| 2026-05-03 23:31 | 26.70675 | -79.90492 | 11988 ft | 283 kts | 92° |
| 2026-05-03 23:32 | 26.70639 | -79.88289 | 11984 ft | 283 kts | 93° |
| 2026-05-03 23:32 | 26.70567 | -79.86091 | 11986 ft | 282 kts | 95° |
| 2026-05-03 23:32 | 26.70448 | -79.83899 | 11987 ft | 282 kts | 96° |
| 2026-05-03 23:32 | 26.70298 | -79.81708 | 11987 ft | 283 kts | 97° |
| 2026-05-03 23:33 | 26.70132 | -79.79537 | 11978 ft | 283 kts | 97° |
| 2026-05-03 23:33 | 26.70046 | -79.77343 | 11980 ft | 284 kts | 83° |
| 2026-05-03 23:33 | 26.70685 | -79.75273 | 11986 ft | 284 kts | 54° |
| 2026-05-03 23:33 | 26.72071 | -79.73750 | 11985 ft | 277 kts | 25° |
| 2026-05-03 23:34 | 26.73831 | -79.72923 | 11982 ft | 274 kts | 15° |
| 2026-05-03 23:34 | 26.75615 | -79.72181 | 11984 ft | 273 kts | 15° |
| 2026-05-03 23:34 | 26.77393 | -79.71430 | 11984 ft | 273 kts | 15° |
| 2026-05-03 23:34 | 26.79148 | -79.70683 | 11980 ft | 272 kts | 12° |
| 2026-05-03 23:35 | 26.80973 | -79.70479 | 11984 ft | 257 kts | 343° |
| 2026-05-03 23:35 | 26.82553 | -79.71238 | 11983 ft | 244 kts | 314° |
| 2026-05-03 23:35 | 26.83514 | -79.72719 | 11983 ft | 232 kts | 284° |
| 2026-05-03 23:35 | 26.83614 | -79.74481 | 11984 ft | 228 kts | 255° |
| 2026-05-03 23:36 | 26.82837 | -79.76013 | 11984 ft | 232 kts | 225° |
| 2026-05-03 23:36 | 26.81420 | -79.76854 | 11981 ft | 242 kts | 195° |
| 2026-05-03 23:36 | 26.79704 | -79.76773 | 11976 ft | 253 kts | 172° |
| 2026-05-03 23:36 | 26.77986 | -79.76334 | 11980 ft | 250 kts | 177° |
| 2026-05-03 23:37 | 26.76270 | -79.76216 | 11982 ft | 245 kts | 189° |
| 2026-05-03 23:37 | 26.74600 | -79.76471 | 11982 ft | 240 kts | 198° |
| 2026-05-03 23:37 | 26.72995 | -79.76974 | 11984 ft | 238 kts | 203° |
| 2026-05-03 23:37 | 26.71437 | -79.77601 | 11985 ft | 237 kts | 206° |
| 2026-05-03 23:38 | 26.69925 | -79.78274 | 11981 ft | 236 kts | 210° |
| 2026-05-03 23:38 | 26.68598 | -79.79292 | 11984 ft | 230 kts | 228° |
| 2026-05-03 23:38 | 26.67690 | -79.80747 | 11988 ft | 229 kts | 248° |
| 2026-05-03 23:38 | 26.67322 | -79.82471 | 11985 ft | 229 kts | 267° |
| 2026-05-03 23:39 | 26.67554 | -79.84243 | 11984 ft | 233 kts | 287° |
| 2026-05-03 23:39 | 26.68376 | -79.85817 | 11985 ft | 240 kts | 307° |
| 2026-05-03 23:39 | 26.69726 | -79.86960 | 11985 ft | 250 kts | 329° |
| 2026-05-03 23:39 | 26.71420 | -79.87424 | 11987 ft | 261 kts | 354° |
| 2026-05-03 23:40 | 26.73239 | -79.87046 | 11988 ft | 272 kts | 17° |
| 2026-05-03 23:40 | 26.75004 | -79.86254 | 11984 ft | 273 kts | 17° |
| 2026-05-03 23:40 | 26.76761 | -79.85463 | 11984 ft | 272 kts | 17° |
| 2026-05-03 23:40 | 26.78523 | -79.84676 | 11983 ft | 272 kts | 17° |
| 2026-05-03 23:41 | 26.80223 | -79.83732 | 11982 ft | 277 kts | 34° |
| 2026-05-03 23:41 | 26.81474 | -79.82071 | 11985 ft | 284 kts | 63° |
| 2026-05-03 23:41 | 26.81939 | -79.79934 | 11983 ft | 284 kts | 93° |
| 2026-05-03 23:41 | 26.81512 | -79.77820 | 11980 ft | 276 kts | 122° |
| 2026-05-03 23:42 | 26.80317 | -79.76211 | 11985 ft | 265 kts | 151° |
| 2026-05-03 23:42 | 26.78694 | -79.75374 | 11983 ft | 252 kts | 175° |
| 2026-05-03 23:42 | 26.77010 | -79.75324 | 11983 ft | 242 kts | 197° |
| 2026-05-03 23:42 | 26.75442 | -79.75917 | 11983 ft | 237 kts | 207° |
| 2026-05-03 23:43 | 26.73914 | -79.76607 | 11981 ft | 237 kts | 207° |
| 2026-05-03 23:43 | 26.72380 | -79.77283 | 11981 ft | 237 kts | 206° |
| 2026-05-03 23:43 | 26.70840 | -79.77957 | 11981 ft | 237 kts | 206° |
| 2026-05-03 23:43 | 26.69344 | -79.78713 | 11982 ft | 233 kts | 218° |
| 2026-05-03 23:44 | 26.68170 | -79.79925 | 11989 ft | 229 kts | 237° |
| 2026-05-03 23:44 | 26.67481 | -79.81519 | 11985 ft | 229 kts | 256° |
| 2026-05-03 23:44 | 26.67376 | -79.83292 | 11984 ft | 231 kts | 276° |
| 2026-05-03 23:44 | 26.67883 | -79.85004 | 11985 ft | 236 kts | 296° |
| 2026-05-03 23:45 | 26.68949 | -79.86394 | 11987 ft | 245 kts | 317° |
| 2026-05-03 23:45 | 26.70496 | -79.87255 | 11985 ft | 255 kts | 341° |
| 2026-05-03 23:45 | 26.72300 | -79.87335 | 11986 ft | 267 kts | 6° |
| 2026-05-03 23:45 | 26.74084 | -79.86650 | 11981 ft | 273 kts | 17° |
| 2026-05-03 23:46 | 26.75845 | -79.85855 | 11983 ft | 272 kts | 17° |
| 2026-05-03 23:46 | 26.77604 | -79.85065 | 11981 ft | 272 kts | 17° |
| 2026-05-03 23:46 | 26.79365 | -79.84273 | 11981 ft | 273 kts | 21° |
| 2026-05-03 23:46 | 26.80904 | -79.82998 | 11995 ft | 281 kts | 48° |
| 2026-05-03 23:47 | 26.81587 | -79.81764 | 11985 ft | 285 kts | 68° |
| 2026-05-03 23:47 | 26.81916 | -79.79589 | 11977 ft | 284 kts | 98° |
| 2026-05-03 23:47 | 26.80994 | -79.76962 | 11983 ft | 271 kts | 137° |
| 2026-05-03 23:47 | 26.79541 | -79.75713 | 11972 ft | 259 kts | 163° |
| 2026-05-03 23:48 | 26.78419 | -79.75327 | 11983 ft | 250 kts | 179° |
| 2026-05-03 23:48 | 26.76724 | -79.75397 | 11983 ft | 240 kts | 200° |
| 2026-05-03 23:48 | 26.75171 | -79.76048 | 11982 ft | 237 kts | 207° |
| 2026-05-03 23:48 | 26.73641 | -79.76734 | 11982 ft | 237 kts | 207° |
| 2026-05-03 23:49 | 26.72107 | -79.77408 | 11983 ft | 237 kts | 206° |
| 2026-05-03 23:49 | 26.70570 | -79.78079 | 11985 ft | 237 kts | 206° |
| 2026-05-03 23:49 | 26.69109 | -79.78898 | 11986 ft | 232 kts | 221° |
| 2026-05-03 23:49 | 26.68011 | -79.80189 | 11989 ft | 229 kts | 240° |
| 2026-05-03 23:50 | 26.67419 | -79.81833 | 11986 ft | 230 kts | 260° |
| 2026-05-03 23:50 | 26.67420 | -79.83595 | 11985 ft | 232 kts | 279° |
| 2026-05-03 23:50 | 26.68030 | -79.85274 | 11984 ft | 238 kts | 300° |
| 2026-05-03 23:50 | 26.69210 | -79.86608 | 11987 ft | 247 kts | 322° |
| 2026-05-03 23:51 | 26.70827 | -79.87337 | 11985 ft | 258 kts | 346° |
| 2026-05-03 23:51 | 26.72650 | -79.87250 | 11983 ft | 270 kts | 12° |
| 2026-05-03 23:51 | 26.74424 | -79.86498 | 11982 ft | 273 kts | 18° |
| 2026-05-03 23:51 | 26.76183 | -79.85704 | 11982 ft | 272 kts | 17° |
| 2026-05-03 23:52 | 26.77941 | -79.84917 | 11980 ft | 272 kts | 17° |
| 2026-05-03 23:52 | 26.79673 | -79.84107 | 11978 ft | 275 kts | 25° |
| 2026-05-03 23:52 | 26.81123 | -79.82694 | 11987 ft | 283 kts | 53° |
| 2026-05-03 23:52 | 26.81874 | -79.80662 | 11981 ft | 285 kts | 83° |
| 2026-05-03 23:53 | 26.81735 | -79.78477 | 11977 ft | 280 kts | 113° |
| 2026-05-03 23:53 | 26.80759 | -79.76665 | 11979 ft | 269 kts | 142° |
| 2026-05-03 23:53 | 26.79229 | -79.75565 | 11975 ft | 256 kts | 168° |
| 2026-05-03 23:53 | 26.77541 | -79.75268 | 11981 ft | 245 kts | 190° |
| 2026-05-03 23:54 | 26.75921 | -79.75704 | 11983 ft | 237 kts | 208° |
| 2026-05-03 23:54 | 26.74388 | -79.76403 | 11981 ft | 237 kts | 207° |
| 2026-05-03 23:54 | 26.72857 | -79.77081 | 11981 ft | 237 kts | 206° |
| 2026-05-03 23:54 | 26.71321 | -79.77751 | 11983 ft | 237 kts | 206° |
| 2026-05-03 23:55 | 26.69775 | -79.78411 | 11982 ft | 238 kts | 206° |
| 2026-05-03 23:55 | 26.68225 | -79.79049 | 11983 ft | 237 kts | 205° |
| 2026-05-03 23:55 | 26.66673 | -79.79680 | 11989 ft | 238 kts | 205° |
| 2026-05-03 23:55 | 26.65106 | -79.80315 | 11986 ft | 240 kts | 205° |
| 2026-05-03 23:56 | 26.63540 | -79.80948 | 11987 ft | 239 kts | 205° |
| 2026-05-03 23:56 | 26.61974 | -79.81583 | 11987 ft | 239 kts | 205° |
| 2026-05-03 23:56 | 26.60341 | -79.82254 | 11993 ft | 268 kts | 205° |
| 2026-05-03 23:56 | 26.58466 | -79.83034 | 11991 ft | 306 kts | 204° |
| 2026-05-03 23:57 | 26.56393 | -79.83889 | 11921 ft | 335 kts | 204° |
| 2026-05-03 23:57 | 26.54171 | -79.84807 | 11804 ft | 340 kts | 205° |
| 2026-05-03 23:57 | 26.51976 | -79.85805 | 11162 ft | 342 kts | 206° |
| 2026-05-03 23:57 | 26.49770 | -79.86861 | 10379 ft | 343 kts | 207° |
| 2026-05-03 23:58 | 26.47638 | -79.87882 | 10148 ft | 323 kts | 207° |
| 2026-05-03 23:58 | 26.45630 | -79.88833 | 9963 ft | 302 kts | 207° |
| 2026-05-03 23:58 | 26.43751 | -79.89717 | 9700 ft | 286 kts | 207° |
| 2026-05-03 23:58 | 26.41935 | -79.90573 | 9108 ft | 281 kts | 207° |
| 2026-05-03 23:59 | 26.40140 | -79.91419 | 8484 ft | 280 kts | 207° |
| 2026-05-03 23:59 | 26.38379 | -79.92262 | 8113 ft | 269 kts | 210° |
| 2026-05-03 23:59 | 26.36748 | -79.93279 | 7909 ft | 269 kts | 214° |
| 2026-05-03 23:59 | 26.35140 | -79.94324 | 7821 ft | 271 kts | 213° |
| 2026-05-04 00:00 | 26.33504 | -79.95377 | 7690 ft | 272 kts | 213° |
| 2026-05-04 00:00 | 26.31876 | -79.96421 | 7473 ft | 269 kts | 213° |
| 2026-05-04 00:00 | 26.30255 | -79.97461 | 7253 ft | 268 kts | 213° |
| 2026-05-04 00:00 | 26.28641 | -79.98496 | 7037 ft | 268 kts | 213° |
| 2026-05-04 00:01 | 26.27029 | -79.99530 | 6829 ft | 267 kts | 213° |
| 2026-05-04 00:01 | 26.25419 | -80.00564 | 6618 ft | 266 kts | 213° |
| 2026-05-04 00:01 | 26.23812 | -80.01597 | 6407 ft | 266 kts | 213° |
| 2026-05-04 00:01 | 26.22212 | -80.02625 | 6185 ft | 265 kts | 213° |
| 2026-05-04 00:02 | 26.20603 | -80.03660 | 6010 ft | 266 kts | 212° |
| 2026-05-04 00:02 | 26.19048 | -80.04725 | 5978 ft | 264 kts | 221° |
| 2026-05-04 00:02 | 26.17847 | -80.06252 | 5979 ft | 263 kts | 242° |
| 2026-05-04 00:02 | 26.17175 | -80.08131 | 5978 ft | 262 kts | 252° |
| 2026-05-04 00:03 | 26.16605 | -80.10064 | 5979 ft | 261 kts | 252° |
| 2026-05-04 00:03 | 26.16033 | -80.11980 | 5979 ft | 262 kts | 252° |
| 2026-05-04 00:03 | 26.15461 | -80.13899 | 5978 ft | 260 kts | 253° |
| 2026-05-04 00:03 | 26.15086 | -80.15873 | 5979 ft | 261 kts | 263° |
| 2026-05-04 00:04 | 26.15023 | -80.17890 | 5979 ft | 262 kts | 270° |
| 2026-05-04 00:04 | 26.15048 | -80.19921 | 5979 ft | 262 kts | 270° |
| 2026-05-04 00:04 | 26.15062 | -80.21950 | 5979 ft | 262 kts | 269° |
| 2026-05-04 00:04 | 26.15069 | -80.23979 | 5979 ft | 262 kts | 269° |
| 2026-05-04 00:05 | 26.15075 | -80.25984 | 5979 ft | 262 kts | 269° |
| 2026-05-04 00:05 | 26.15081 | -80.28009 | 5978 ft | 261 kts | 269° |
| 2026-05-04 00:05 | 26.15086 | -80.30035 | 5978 ft | 262 kts | 269° |
| 2026-05-04 00:05 | 26.15094 | -80.32063 | 5977 ft | 261 kts | 269° |
| 2026-05-04 00:06 | 26.15103 | -80.34084 | 5976 ft | 262 kts | 269° |
| 2026-05-04 00:06 | 26.15109 | -80.36109 | 5808 ft | 261 kts | 269° |
| 2026-05-04 00:06 | 26.15104 | -80.38131 | 5462 ft | 260 kts | 269° |
| 2026-05-04 00:06 | 26.15097 | -80.40122 | 5127 ft | 260 kts | 269° |
| 2026-05-04 00:07 | 26.15092 | -80.42135 | 4764 ft | 260 kts | 269° |
| 2026-05-04 00:07 | 26.15088 | -80.44144 | 4317 ft | 260 kts | 269° |
| 2026-05-04 00:07 | 26.15086 | -80.46156 | 4048 ft | 259 kts | 269° |
| 2026-05-04 00:07 | 26.15085 | -80.48174 | 3981 ft | 261 kts | 269° |
| 2026-05-04 00:08 | 26.15084 | -80.50190 | 3977 ft | 260 kts | 269° |
| 2026-05-04 00:08 | 26.15081 | -80.52130 | 3972 ft | 240 kts | 269° |
| 2026-05-04 00:08 | 26.15077 | -80.53906 | 3975 ft | 217 kts | 267° |
| 2026-05-04 00:08 | 26.14651 | -80.55400 | 3977 ft | 194 kts | 232° |
| 2026-05-04 00:09 | 26.13611 | -80.56184 | 3972 ft | 180 kts | 194° |
| 2026-05-04 00:09 | 26.12324 | -80.56126 | 3971 ft | 187 kts | 169° |
| 2026-05-04 00:09 | 26.11228 | -80.55400 | 3976 ft | 190 kts | 129° |
| 2026-05-04 00:09 | 26.10622 | -80.54093 | 3974 ft | 191 kts | 113° |
| 2026-05-04 00:10 | 26.10120 | -80.52727 | 3977 ft | 191 kts | 113° |
| 2026-05-04 00:10 | 26.09633 | -80.51351 | 3975 ft | 191 kts | 112° |
| 2026-05-04 00:10 | 26.09152 | -80.49991 | 3977 ft | 191 kts | 112° |
| 2026-05-04 00:10 | 26.08664 | -80.48609 | 3977 ft | 191 kts | 112° |
| 2026-05-04 00:11 | 26.08177 | -80.47202 | 3981 ft | 201 kts | 109° |
| 2026-05-04 00:11 | 26.07903 | -80.45669 | 3969 ft | 202 kts | 96° |
| 2026-05-04 00:11 | 26.07847 | -80.44115 | 3973 ft | 204 kts | 91° |
| 2026-05-04 00:11 | 26.07845 | -80.42527 | 3973 ft | 202 kts | 90° |
| 2026-05-04 00:12 | 26.07837 | -80.40978 | 3973 ft | 203 kts | 91° |
| 2026-05-04 00:12 | 26.07828 | -80.39405 | 3897 ft | 203 kts | 91° |
| 2026-05-04 00:12 | 26.07818 | -80.37833 | 3662 ft | 202 kts | 91° |
| 2026-05-04 00:12 | 26.07809 | -80.36288 | 3398 ft | 198 kts | 91° |
| 2026-05-04 00:13 | 26.07800 | -80.34756 | 3138 ft | 196 kts | 91° |
| 2026-05-04 00:13 | 26.07791 | -80.33239 | 2879 ft | 195 kts | 91° |
| 2026-05-04 00:13 | 26.07783 | -80.31749 | 2633 ft | 194 kts | 90° |
| 2026-05-04 00:13 | 26.07774 | -80.30263 | 2382 ft | 189 kts | 90° |
| 2026-05-04 00:14 | 26.07768 | -80.28830 | 2035 ft | 187 kts | 90° |
| 2026-05-04 00:14 | 26.07760 | -80.27364 | 1610 ft | 185 kts | 89° |
| 2026-05-04 00:14 | 26.07741 | -80.25928 | 1194 ft | 191 kts | 89° |
| 2026-05-04 00:14 | 26.07720 | -80.24383 | 964 ft | 203 kts | 89° |
| 2026-05-04 00:15 | 26.07705 | -80.22908 | 934 ft | 177 kts | 88° |
| 2026-05-04 00:15 | 26.07706 | -80.21655 | 820 ft | 148 kts | 89° |
| 2026-05-04 00:15 | 26.07690 | -80.20596 | 690 ft | 128 kts | 89° |
| 2026-05-04 00:15 | 26.07670 | -80.19632 | 476 ft | 121 kts | 87° |
| 2026-05-04 00:16 | 26.07679 | -80.18670 | 378 ft | 126 kts | 86° |
| 2026-05-04 00:16 | 26.07694 | -80.17623 | 249 ft | 140 kts | 88° |
| 2026-05-04 00:16 | 26.07695 | -80.16560 | 67 ft | 135 kts | 88° |
| 2026-05-04 00:16 | 26.07688 | -80.15576 | 15 ft | 113 kts | 90° |
| 2026-05-04 00:17 | 26.07686 | -80.14955 | 17 ft | 32 kts | 92° |
| 2026-05-04 00:17 | 26.07663 | -80.14708 | 20 ft | 38 kts | 103° |
| 2026-05-04 00:17 | 26.07622 | -80.14600 | 18 ft | 12 kts | 142° |
| 2026-05-04 00:17 | 26.07560 | -80.14658 | 16 ft | 10 kts | 275° |
| 2026-05-04 00:18 | 26.07560 | -80.14661 | 16 ft | 0 kts | 274° |
| 2026-05-04 00:20 | 26.07561 | -80.14689 | 16 ft | 8 kts | 273° |
| 2026-05-04 00:20 | 26.07562 | -80.14774 | 16 ft | 14 kts | 269° |
| 2026-05-04 00:20 | 26.07511 | -80.14871 | 16 ft | 18 kts | 226° |
| 2026-05-04 00:20 | 26.07423 | -80.14968 | 16 ft | 17 kts | 224° |
| 2026-05-04 00:21 | 26.07338 | -80.15062 | 17 ft | 19 kts | 225° |
| 2026-05-04 00:21 | 26.07258 | -80.15128 | 15 ft | 17 kts | 187° |
| 2026-05-04 00:21 | 26.07138 | -80.15128 | 15 ft | 19 kts | 179° |
| 2026-05-04 00:21 | 26.07065 | -80.15127 | 15 ft | 2 kts | 182° |
| 2026-05-04 00:22 | 26.07041 | -80.15128 | 15 ft | 2 kts | 182° |
| 2026-05-04 00:22 | 26.06992 | -80.15110 | 15 ft | 12 kts | 126° |
| 2026-05-04 00:22 | 26.06984 | -80.14999 | 15 ft | 17 kts | 90° |
| 2026-05-04 00:22 | 26.06985 | -80.14917 | 15 ft | 4 kts | 89° |
| 2026-05-04 00:23 | 26.06963 | -80.14854 | 16 ft | 13 kts | 135° |
| 2026-05-04 00:23 | 26.06941 | -80.14773 | 15 ft | 14 kts | 57° |
| 2026-05-04 00:23 | 26.06993 | -80.14680 | 15 ft | 15 kts | 84° |
| 2026-05-04 00:23 | 26.06993 | -80.14630 | 15 ft | 5 kts | 90° |
| 2026-05-04 00:24 | 26.07015 | -80.14586 | 16 ft | 5 kts | 18° |
| 2026-05-04 00:24 | 26.07036 | -80.14579 | 15 ft | 2 kts | 19° |